Time;durP1;ratioP1;P1;durP2;ratioP2;P2;SDS_P1;SDS_P2;PMS_P1;PMS_P2;Temp;Humidity;BMP_temperature;BMP_pressure;BME280_temperature;BME280_humidity;BME280_pressure;Samples;Min_cycle;Max_cycle;Signal;HPM_P1;HPM_P2
2024/03/13 00:01:35;;;;;;;25.77;10.90;;;;;;;30.18;71.21;101191.69;5059489;28;69196;-30
2024/03/13 00:04:06;;;;;;;25.63;12.40;;;;;;;30.15;71.33;101194.00;5061603;28;65966;-32
2024/03/13 00:06:38;;;;;;;25.83;11.85;;;;;;;30.18;72.66;101202.53;5057588;28;70367;-33
2024/03/13 00:09:09;;;;;;;18.35;11.15;;;;;;;30.20;71.22;101200.44;5061823;28;67922;-31
2024/03/13 00:11:40;;;;;;;22.45;12.38;;;;;;;30.25;72.97;101208.78;5063035;28;70271;-31
2024/03/13 00:14:11;;;;;;;22.17;11.98;;;;;;;30.31;73.36;101209.00;5061346;28;66439;-30
2024/03/13 00:16:42;;;;;;;18.50;11.77;;;;;;;30.32;73.60;101208.81;5060337;28;71577;-31
2024/03/13 00:19:14;;;;;;;30.40;13.20;;;;;;;30.30;74.74;101212.75;5061844;28;65591;-31
2024/03/13 00:21:45;;;;;;;18.38;11.20;;;;;;;30.34;74.66;101216.69;5056927;28;69746;-31
2024/03/13 00:24:17;;;;;;;27.52;11.95;;;;;;;30.39;73.76;101214.19;5059429;28;65825;-30
2024/03/13 00:26:50;;;;;;;16.60;11.23;;;;;;;30.40;75.31;101218.59;5060975;28;70342;-31
2024/03/13 00:29:26;;;;;;;19.05;12.40;;;;;;;30.46;74.23;101231.28;5057887;28;65243;-30
2024/03/13 00:31:58;;;;;;;21.10;12.07;;;;;;;30.48;74.73;101230.03;5059677;28;70311;-31
2024/03/13 00:34:28;;;;;;;16.38;12.20;;;;;;;30.44;74.43;101219.81;5053913;28;65963;-31
2024/03/13 00:37:00;;;;;;;;;;;;;;;30.44;78.04;101225.22;5054233;28;70774;-32
2024/03/13 00:39:31;;;;;;;14.88;11.02;;;;;;;30.48;75.58;101232.75;5059822;28;66967;-32
2024/03/13 00:42:03;;;;;;;21.13;11.37;;;;;;;30.56;74.16;101230.84;5057115;28;69231;-31
2024/03/13 00:44:33;;;;;;;15.32;10.70;;;;;;;30.56;75.02;101237.09;5053467;28;66071;-31
2024/03/13 00:47:04;;;;;;;19.45;10.70;;;;;;;30.57;75.72;101232.53;5058351;28;70825;-32
2024/03/13 00:49:37;;;;;;;21.33;10.40;;;;;;;30.56;75.61;101228.13;5060079;28;66224;-33
2024/03/13 00:52:08;;;;;;;27.52;11.23;;;;;;;30.63;76.42;101247.94;5056840;28;70265;-32
2024/03/13 00:54:50;;;;;;;20.00;11.07;;;;;;;30.66;76.07;101242.91;5058883;28;65922;-31
2024/03/13 00:57:24;;;;;;;22.08;11.50;;;;;;;30.70;74.64;101255.00;5052173;28;70107;-30
2024/03/13 00:59:55;;;;;;;17.27;10.53;;;;;;;30.77;73.61;101248.75;5060276;28;66256;-32
2024/03/13 01:02:27;;;;;;;20.00;10.88;;;;;;;30.80;73.46;101260.00;5061279;28;69885;-31
2024/03/13 01:04:58;;;;;;;17.13;10.52;;;;;;;30.82;73.36;101263.34;5057406;28;66474;-30
2024/03/13 01:07:30;;;;;;;;;;;;;;;30.74;74.99;101266.25;5062069;28;69321;-31
2024/03/13 01:10:03;;;;;;;17.17;10.63;;;;;;;30.85;72.91;101268.34;5060535;28;67100;-31
2024/03/13 01:12:34;;;;;;;17.23;9.82;;;;;;;30.86;72.72;101266.47;5059101;28;70098;-32
2024/03/13 01:15:06;;;;;;;10.43;9.52;;;;;;;30.89;72.44;101263.31;5057992;28;66353;-30
2024/03/13 01:17:38;;;;;;;13.20;9.93;;;;;;;30.90;72.50;101275.84;5059075;28;69838;-31
2024/03/13 01:20:14;;;;;;;15.77;9.95;;;;;;;30.92;72.41;101273.72;5044719;28;66289;-30
2024/03/13 01:22:48;;;;;;;13.88;9.88;;;;;;;30.95;72.52;101284.16;5056562;28;69628;-31
2024/03/13 01:25:22;;;;;;;14.60;10.05;;;;;;;30.96;72.44;101285.81;5058344;28;65566;-31
2024/03/13 01:27:53;;;;;;;15.38;9.77;;;;;;;30.98;72.11;101282.88;5058759;28;70348;-31
2024/03/13 01:30:24;;;;;;;9.82;8.70;;;;;;;30.97;71.96;101282.06;5058119;28;68189;-32
2024/03/13 01:32:56;;;;;;;12.13;9.93;;;;;;;31.00;71.54;101292.47;5057962;28;71228;-31
2024/03/13 01:35:28;;;;;;;12.68;9.48;;;;;;;31.03;71.54;101291.22;5057792;28;65735;-32
2024/03/13 01:38:02;;;;;;;10.38;8.73;;;;;;;31.04;71.34;101288.31;5058311;28;70434;-32
2024/03/13 01:55:10;;;;;;;10.20;9.20;;;;;;;30.98;71.92;101261.22;5057607;28;69875;-32
2024/03/13 01:58:19;;;;;;;13.65;10.02;;;;;;;31.19;71.47;101289.94;5056512;28;66086;-31
2024/03/13 02:03:28;;;;;;;12.48;9.30;;;;;;;31.23;71.29;101286.59;5057684;28;66589;-32
2024/03/13 02:06:04;;;;;;;14.00;9.68;;;;;;;31.26;71.35;101296.16;5055797;28;69953;-31
2024/03/13 02:08:35;;;;;;;11.95;9.60;;;;;;;31.29;71.33;101290.34;5056044;28;66368;-32
2024/03/13 02:11:06;;;;;;;10.43;8.85;;;;;;;31.31;70.94;101282.81;5058952;28;69661;-32
2024/03/13 02:13:39;;;;;;;10.57;8.85;;;;;;;31.11;71.09;101243.06;5047254;28;66707;-33
2024/03/13 02:16:11;;;;;;;12.45;9.32;;;;;;;31.36;71.13;101291.16;5058608;28;70349;-31
2024/03/13 02:18:41;;;;;;;10.67;9.37;;;;;;;31.31;70.95;101266.53;5058970;28;66260;-30
2024/03/13 02:21:13;;;;;;;10.13;9.05;;;;;;;31.40;70.81;101276.16;5057883;28;69751;-31
2024/03/13 02:23:47;;;;;;;9.95;9.05;;;;;;;31.40;70.97;101270.72;5058725;28;66326;-34
2024/03/13 02:26:19;;;;;;;10.30;9.27;;;;;;;31.46;70.98;101274.47;5057004;28;70038;-31
2024/03/13 02:28:51;;;;;;;11.05;9.32;;;;;;;31.47;71.08;101281.53;5059192;28;66028;-33
2024/03/13 02:31:22;;;;;;;9.80;8.98;;;;;;;31.50;70.94;101279.22;5052480;28;70034;-31
2024/03/13 02:33:53;;;;;;;12.23;8.82;;;;;;;31.53;70.53;101276.06;5051997;28;65986;-31
2024/03/13 02:36:25;;;;;;;10.20;9.20;;;;;;;31.55;70.57;101268.56;5058252;28;69940;-35
2024/03/13 02:38:56;;;;;;;10.63;9.00;;;;;;;31.53;70.54;101267.94;5055373;28;65280;-34
2024/03/13 02:41:29;;;;;;;9.65;8.60;;;;;;;31.61;70.45;101273.13;5051664;28;69705;-35
2024/03/13 02:44:00;;;;;;;11.40;9.63;;;;;;;31.65;70.04;101269.97;5045381;28;65108;-32
2024/03/13 02:46:31;;;;;;;10.90;9.77;;;;;;;31.68;70.48;101266.81;5051700;28;70092;-36
2024/03/13 02:49:02;;;;;;;11.52;9.93;;;;;;;31.72;70.43;101268.06;5045716;28;66690;-35
2024/03/13 02:51:34;;;;;;;10.57;8.93;;;;;;;31.72;70.00;101258.03;5058202;28;70240;-32
2024/03/13 02:54:05;;;;;;;12.48;9.63;;;;;;;31.77;70.17;101255.50;5056590;28;66529;-31
2024/03/13 02:56:37;;;;;;;13.25;9.93;;;;;;;31.81;69.94;101250.47;5047059;28;69303;-33
2024/03/13 02:59:08;;;;;;;11.23;10.18;;;;;;;31.79;69.93;101247.19;5057469;28;66393;-31
2024/03/13 03:01:39;;;;;;;10.23;8.85;;;;;;;31.88;69.83;101256.72;5057179;28;70602;-32
2024/03/13 03:04:11;;;;;;;12.47;10.27;;;;;;;31.88;69.63;101254.00;5058685;28;65670;-31
2024/03/13 03:06:42;;;;;;;10.70;9.65;;;;;;;31.93;69.52;101251.50;5057254;28;70503;-32
2024/03/13 03:09:13;;;;;;;10.17;9.33;;;;;;;31.96;69.38;101252.94;5055523;28;66127;-31
2024/03/13 03:11:47;;;;;;;11.23;9.82;;;;;;;32.01;69.11;101256.66;5058196;28;70206;-32
2024/03/13 03:14:20;;;;;;;10.48;9.68;;;;;;;32.04;69.48;101245.38;5057220;28;65467;-33
2024/03/13 03:16:54;;;;;;;14.80;9.82;;;;;;;32.07;69.41;101249.53;5056944;28;69983;-32
2024/03/13 03:19:26;;;;;;;11.35;9.82;;;;;;;32.09;69.10;101246.56;5058345;28;66104;-30
2024/03/13 03:21:57;;;;;;;10.30;9.45;;;;;;;32.14;68.92;101249.47;5055420;28;69168;-31
2024/03/13 03:24:31;;;;;;;11.55;10.05;;;;;;;32.17;69.22;101243.59;5055101;28;64940;-31
2024/03/13 03:27:05;;;;;;;12.10;9.43;;;;;;;32.20;69.09;101248.56;5057428;28;69761;-30
2024/03/13 03:29:36;;;;;;;18.55;10.52;;;;;;;32.21;69.00;101237.50;5056271;28;65838;-33
2024/03/13 03:32:09;;;;;;;12.88;10.15;;;;;;;32.26;69.07;101237.69;5058272;28;70095;-32
2024/03/13 03:34:42;;;;;;;15.68;9.55;;;;;;;32.28;68.63;101232.00;5062218;28;66399;-32
2024/03/13 03:37:16;;;;;;;10.45;9.55;;;;;;;32.30;69.08;101231.81;5058191;28;70388;-32
2024/03/13 03:39:48;;;;;;;10.80;9.80;;;;;;;32.30;68.96;101229.91;5053276;28;65896;-31
2024/03/13 03:42:20;;;;;;;11.40;10.35;;;;;;;32.37;68.93;101238.81;5059065;28;70777;-31
2024/03/13 03:44:53;;;;;;;10.63;9.73;;;;;;;32.38;68.69;101235.06;5060083;28;67898;-31
2024/03/13 03:47:25;;;;;;;10.70;9.82;;;;;;;32.43;68.79;101237.97;5054665;28;70038;-32
2024/03/13 03:49:56;;;;;;;11.93;10.60;;;;;;;32.45;68.65;101233.13;5058751;28;66441;-31
2024/03/13 03:52:26;;;;;;;16.15;10.52;;;;;;;32.47;68.74;101222.91;5058576;28;69799;-31
2024/03/13 03:54:57;;;;;;;13.27;9.93;;;;;;;32.51;68.62;101227.88;5061360;28;67786;-33
2024/03/13 03:57:28;;;;;;;12.20;10.50;;;;;;;32.53;68.77;101226.59;5058361;28;70356;-34
2024/03/13 04:00:00;;;;;;;11.83;10.90;;;;;;;32.56;68.63;101211.75;5060909;28;67718;-33
2024/03/13 04:02:33;;;;;;;11.40;10.50;;;;;;;32.59;68.45;101217.56;5060711;28;70208;-31
2024/03/13 04:05:08;;;;;;;11.80;10.63;;;;;;;32.62;68.22;101210.84;5059776;28;66033;-33
2024/03/13 04:07:41;;;;;;;15.73;11.25;;;;;;;32.64;68.45;101212.28;5060746;28;70331;-32
2024/03/13 04:10:15;;;;;;;11.57;10.55;;;;;;;32.67;68.35;101213.72;5058135;28;66320;-32
2024/03/13 04:12:47;;;;;;;11.65;10.52;;;;;;;32.68;68.23;101202.66;5060051;28;69424;-31
2024/03/13 04:15:23;;;;;;;15.43;10.07;;;;;;;32.73;68.26;101201.94;5060805;28;66659;-32
2024/03/13 04:17:54;;;;;;;14.15;10.77;;;;;;;32.78;68.15;101201.28;5059501;28;70041;-33
2024/03/13 04:20:25;;;;;;;11.48;10.40;;;;;;;32.74;68.20;101183.78;5059386;28;66560;-32
2024/03/13 04:22:57;;;;;;;11.52;10.55;;;;;;;32.82;68.05;101188.91;5056242;28;68792;-32
2024/03/13 04:25:32;;;;;;;11.52;10.50;;;;;;;32.83;68.05;101183.25;5059537;28;66677;-31
2024/03/13 04:28:04;;;;;;;11.80;10.68;;;;;;;32.87;67.97;101189.88;5059431;28;44263;-32
2024/03/13 04:30:41;;;;;;;11.52;10.52;;;;;;;32.88;68.51;101180.69;5058839;28;65673;-32
2024/03/13 04:33:16;;;;;;;12.00;10.77;;;;;;;32.91;68.05;101174.81;5059427;28;70091;-32
2024/03/13 04:35:47;;;;;;;12.80;10.60;;;;;;;32.94;67.86;101174.34;5059775;28;66455;-31
2024/03/13 04:38:19;;;;;;;11.10;10.07;;;;;;;33.00;68.01;101166.38;5048510;28;70348;-32
2024/03/13 04:40:51;;;;;;;11.20;10.13;;;;;;;33.00;67.93;101161.75;5060227;28;65905;-32
2024/03/13 04:43:22;;;;;;;11.85;10.60;;;;;;;33.04;67.94;101156.69;5056747;28;70646;-37
2024/03/13 04:45:54;;;;;;;12.13;10.82;;;;;;;33.06;67.87;101160.84;5048858;28;66839;-32
2024/03/13 04:48:27;;;;;;;14.27;10.90;;;;;;;33.09;67.66;101148.69;5057113;28;69563;-32
2024/03/13 04:51:00;;;;;;;12.25;11.18;;;;;;;33.14;67.61;101140.69;5058789;28;66540;-32
2024/03/13 04:53:31;;;;;;;12.02;10.85;;;;;;;33.16;67.76;101138.56;5058292;28;70451;-33
2024/03/13 04:56:03;;;;;;;12.07;10.75;;;;;;;33.18;67.58;101130.16;5059029;28;66802;-31
2024/03/13 04:58:34;;;;;;;11.50;10.52;;;;;;;33.19;67.72;101121.78;5058296;28;70142;-32
2024/03/13 05:01:05;;;;;;;12.80;11.50;;;;;;;33.22;67.67;101121.34;5058203;28;65195;-32
2024/03/13 05:03:38;;;;;;;12.10;10.93;;;;;;;33.25;67.74;101110.00;5058493;28;70279;-32
2024/03/13 05:06:11;;;;;;;11.07;10.18;;;;;;;33.22;67.42;101099.59;5058946;28;66738;-31
2024/03/13 05:08:41;;;;;;;12.70;10.95;;;;;;;33.29;67.55;101105.75;5058447;28;69403;-34
2024/03/13 05:11:14;;;;;;;12.15;10.82;;;;;;;33.31;67.56;101103.63;5058152;28;66387;-32
2024/03/13 05:13:48;;;;;;;11.25;10.38;;;;;;;33.34;67.51;101089.56;5058272;28;69447;-31
2024/03/13 05:16:19;;;;;;;11.70;10.60;;;;;;;33.36;67.47;101089.34;5059521;28;65743;-32
2024/03/13 05:18:49;;;;;;;11.13;10.32;;;;;;;33.35;67.29;101083.06;5053637;28;70441;-33
2024/03/13 05:21:24;;;;;;;11.52;10.70;;;;;;;33.43;67.33;101083.78;5058907;28;66708;-32
2024/03/13 05:23:55;;;;;;;12.43;10.90;;;;;;;33.46;67.36;101072.44;5058352;28;69764;-32
2024/03/13 05:26:27;;;;;;;12.27;11.05;;;;;;;33.51;67.39;101069.84;5057949;28;66348;-32
2024/03/13 05:29:01;;;;;;;10.98;9.98;;;;;;;33.49;67.31;101066.53;5058805;28;69417;-32
2024/03/13 05:31:33;;;;;;;12.52;11.23;;;;;;;33.54;66.99;101058.53;5053957;28;66354;-32
2024/03/13 05:34:07;;;;;;;11.25;10.30;;;;;;;33.55;67.11;101061.03;5058390;28;69876;-33
2024/03/13 05:36:41;;;;;;;13.38;10.68;;;;;;;33.56;67.41;101045.53;5059714;28;66402;-31
2024/03/13 05:39:15;;;;;;;11.55;10.55;;;;;;;33.65;67.31;101052.28;5068103;28;70293;-32
2024/03/13 05:41:47;;;;;;;12.43;11.43;;;;;;;33.67;67.25;101039.28;5058179;28;65880;-34
2024/03/13 05:44:21;;;;;;;12.60;11.35;;;;;;;33.70;67.01;101030.63;5051625;28;69380;-32
2024/03/13 05:46:54;;;;;;;11.43;10.63;;;;;;;33.75;66.91;101027.22;5059872;28;66564;-31
2024/03/13 05:49:25;;;;;;;12.10;11.20;;;;;;;33.73;66.81;101019.28;5059127;28;70401;-32
2024/03/13 05:51:58;;;;;;;11.88;10.95;;;;;;;33.78;66.80;101010.41;5056225;28;66598;-32
2024/03/13 05:54:28;;;;;;;12.50;11.45;;;;;;;33.79;66.85;101002.03;5054053;28;70126;-32
2024/03/13 05:56:59;;;;;;;12.68;11.13;;;;;;;33.79;66.97;100995.75;5059326;28;65576;-32
2024/03/13 05:59:32;;;;;;;13.05;11.75;;;;;;;33.88;66.76;100998.94;5056050;28;70484;-32
2024/03/13 06:02:02;;;;;;;13.48;11.35;;;;;;;33.90;66.74;100986.75;5059356;28;65779;-31
2024/03/13 06:04:33;;;;;;;11.48;10.45;;;;;;;33.94;66.62;100981.66;5058351;28;70074;-31
2024/03/13 06:07:06;;;;;;;12.85;11.68;;;;;;;33.95;66.83;100975.97;5058290;28;65756;-31
2024/03/13 06:09:37;;;;;;;13.67;11.77;;;;;;;33.99;66.86;100970.88;5059558;28;69802;-32
2024/03/13 06:12:12;;;;;;;12.63;11.40;;;;;;;34.02;66.51;100962.25;5058624;28;65852;-33
2024/03/13 06:14:42;;;;;;;;;;;;;;;33.97;66.26;100964.84;5058630;28;70740;-34
2024/03/13 06:17:14;;;;;;;13.00;11.70;;;;;;;34.05;66.14;100950.91;5059860;28;65227;-32
2024/03/13 06:19:50;;;;;;;13.02;11.98;;;;;;;34.09;66.46;100946.63;5045170;28;70633;-32
2024/03/13 06:22:20;;;;;;;12.10;11.07;;;;;;;34.13;66.49;100942.38;5059263;28;65837;-32
2024/03/13 06:24:51;;;;;;;12.40;11.33;;;;;;;34.14;66.46;100935.84;5059392;28;71493;-32
2024/03/13 06:27:27;;;;;;;12.90;11.65;;;;;;;34.18;66.24;100931.56;5057391;28;65678;-32
2024/03/13 06:29:59;;;;;;;13.27;12.27;;;;;;;34.16;66.44;100922.81;5060908;28;69659;-31
2024/03/13 06:32:32;;;;;;;13.55;12.55;;;;;;;34.24;66.34;100921.59;5056985;28;66280;-30
2024/03/13 06:35:04;;;;;;;14.10;12.90;;;;;;;34.28;66.12;100911.06;5054149;28;70092;-32
2024/03/13 06:37:35;;;;;;;14.90;12.10;;;;;;;34.29;66.22;100912.72;5058368;28;65503;-32
2024/03/13 06:40:07;;;;;;;12.82;11.88;;;;;;;34.32;66.04;100909.50;5057823;28;70002;-32
2024/03/13 06:42:39;;;;;;;13.38;11.55;;;;;;;34.34;65.97;100907.38;5058728;28;65859;-32
2024/03/13 06:45:10;;;;;;;13.23;12.07;;;;;;;34.37;66.13;100909.59;5053508;28;69975;-32
2024/03/13 06:47:51;;;;;;;12.98;11.68;;;;;;;34.37;66.06;100901.44;5052753;28;65864;-32
2024/03/13 06:50:22;;;;;;;12.73;11.57;;;;;;;34.41;65.64;100905.34;5052319;28;69819;-32
2024/03/13 06:52:54;;;;;;;13.05;12.05;;;;;;;34.41;65.58;100894.44;5052775;28;66532;-32
2024/03/13 06:55:25;;;;;;;14.23;12.73;;;;;;;34.48;65.42;100889.66;5053740;28;71484;-35
2024/03/13 06:57:55;;;;;;;13.18;12.05;;;;;;;34.51;65.67;100881.00;5053809;28;65417;-32
2024/03/13 07:00:32;;;;;;;13.27;11.97;;;;;;;34.51;65.42;100883.72;5051651;28;69423;-32
2024/03/13 07:03:04;;;;;;;13.57;12.43;;;;;;;34.55;65.67;100884.88;5052337;28;66041;-32
2024/03/13 07:05:35;;;;;;;12.55;11.55;;;;;;;34.58;65.73;100878.16;5054672;28;70221;-33
2024/03/13 07:08:06;;;;;;;12.47;11.60;;;;;;;34.58;65.58;100873.53;5053281;28;65986;-31
2024/03/13 07:10:39;;;;;;;12.95;11.75;;;;;;;34.60;65.71;100873.25;5057033;28;69882;-32
2024/03/13 07:13:12;;;;;;;13.40;12.30;;;;;;;34.64;65.49;100860.81;5056790;28;65641;-32
2024/03/13 07:15:43;;;;;;;17.43;12.43;;;;;;;34.62;65.50;100860.22;5057865;28;69672;-31
2024/03/13 07:18:15;;;;;;;12.88;11.68;;;;;;;34.66;65.21;100847.78;5057322;28;65525;-32
2024/03/13 07:20:48;;;;;;;12.68;11.55;;;;;;;34.66;65.20;100851.34;5054700;28;69504;-32
2024/03/13 07:23:32;;;;;;;15.50;12.05;;;;;;;34.69;65.09;100839.94;5056263;28;66547;-33
2024/03/13 07:26:05;;;;;;;17.08;12.65;;;;;;;34.68;65.17;100841.00;5056324;28;69820;-33
2024/03/13 07:28:37;;;;;;;12.70;11.65;;;;;;;34.72;65.60;100835.91;5056911;28;66263;-31
2024/03/13 07:31:08;;;;;;;13.43;12.02;;;;;;;34.75;65.49;100829.13;5056570;28;70167;-32
2024/03/13 07:33:40;;;;;;;14.10;12.82;;;;;;;34.75;65.35;100834.56;5054280;28;66191;-32
2024/03/13 07:36:12;;;;;;;12.98;11.90;;;;;;;34.79;65.12;100838.44;5056638;28;69994;-32
2024/03/13 07:38:45;;;;;;;13.20;12.00;;;;;;;34.81;65.03;100823.50;5056116;28;66475;-33
2024/03/13 07:41:17;;;;;;;12.50;11.63;;;;;;;34.82;64.95;100819.69;5053921;28;69562;-31
2024/03/13 07:43:52;;;;;;;13.45;12.05;;;;;;;34.81;65.39;100800.88;5058300;28;65734;-35
2024/03/13 07:46:25;;;;;;;16.67;11.63;;;;;;;34.74;64.89;100781.13;5060300;28;70300;-33
2024/03/13 07:48:56;;;;;;;15.50;11.68;;;;;;;34.88;65.11;100805.09;5060681;28;65030;-32
2024/03/13 07:51:27;;;;;;;;;;;;;;;34.78;64.75;100806.81;5060258;28;68892;-32
2024/03/13 07:53:58;;;;;;;14.98;11.75;;;;;;;34.93;65.25;100809.75;5059162;28;66452;-33
2024/03/13 07:56:31;;;;;;;13.27;11.90;;;;;;;34.95;65.34;100806.81;5060373;28;69362;-34
2024/03/13 07:59:06;;;;;;;12.90;11.80;;;;;;;34.94;65.29;100797.81;5057115;28;65998;-35
2024/03/13 08:01:41;;;;;;;12.30;11.40;;;;;;;34.93;65.22;100788.78;5059017;28;69727;-32
2024/03/13 08:04:12;;;;;;;;;;;;;;;34.93;65.23;100793.41;5060165;28;65391;-34
2024/03/13 08:06:43;;;;;;;13.02;11.77;;;;;;;35.00;65.15;100787.81;5055308;28;71411;-32
2024/03/13 08:09:31;;;;;;;12.93;11.73;;;;;;;35.07;65.22;100789.28;5059271;28;66512;-32
2024/03/13 08:12:19;;;;;;;12.20;11.05;;;;;;;35.08;64.72;100787.41;5053480;28;70125;-32
2024/03/13 08:15:07;;;;;;;13.30;12.00;;;;;;;35.05;64.74;100783.25;5058237;28;65314;-34
2024/03/13 08:17:55;;;;;;;11.68;10.75;;;;;;;35.04;64.95;100781.59;5059978;28;70444;-32
2024/03/13 08:20:42;;;;;;;12.38;11.38;;;;;;;35.05;65.24;100790.56;5059356;28;65392;-32
2024/03/13 08:23:29;;;;;;;12.05;10.95;;;;;;;35.05;65.08;100796.03;5049114;28;70201;-31
2024/03/13 08:26:16;;;;;;;12.15;10.90;;;;;;;35.08;65.26;100796.41;5052235;28;66833;-32
2024/03/13 08:29:03;;;;;;;12.88;11.57;;;;;;;35.09;64.67;100791.78;5060241;28;69338;-31
2024/03/13 08:31:51;;;;;;;13.80;11.30;;;;;;;35.11;64.89;100790.44;5060416;28;66077;-32
2024/03/13 08:34:38;;;;;;;11.18;10.25;;;;;;;35.12;65.21;100797.53;5058727;28;70349;-31
2024/03/13 08:37:26;;;;;;;11.75;10.60;;;;;;;35.14;64.75;100784.50;5059676;28;66033;-33
2024/03/13 08:40:13;;;;;;;11.52;10.55;;;;;;;35.17;64.75;100793.25;5056617;28;70993;-31
2024/03/13 08:43:00;;;;;;;11.45;10.55;;;;;;;35.23;64.62;100797.69;5059108;28;65288;-32
2024/03/13 08:45:47;;;;;;;12.32;11.32;;;;;;;35.22;64.83;100793.31;5059221;28;70015;-33
2024/03/13 08:48:34;;;;;;;11.35;10.43;;;;;;;35.10;64.84;100779.78;5055780;28;66296;-31
2024/03/13 08:51:21;;;;;;;16.05;11.00;;;;;;;35.25;65.06;100806.44;5056014;28;70522;-33
2024/03/13 08:54:11;;;;;;;11.55;10.43;;;;;;;35.27;65.03;100804.28;5055915;28;66814;-33
2024/03/13 08:56:58;;;;;;;11.10;10.20;;;;;;;35.27;64.73;100807.00;5054577;28;69930;-32
2024/03/13 08:59:47;;;;;;;11.43;10.38;;;;;;;35.26;65.19;100805.34;5058851;28;65978;-32
2024/03/13 09:02:33;;;;;;;11.25;10.45;;;;;;;35.29;64.86;100802.94;5056771;28;70430;-31
2024/03/13 09:05:20;;;;;;;13.00;9.93;;;;;;;35.27;64.81;100804.28;5056814;28;65759;-32
2024/03/13 09:08:10;;;;;;;11.13;10.23;;;;;;;35.27;65.22;100809.72;5039825;28;70627;-33
2024/03/13 09:10:45;;;;;;;12.68;10.07;;;;;;;35.23;65.22;100808.59;5058503;28;66154;-32
2024/03/13 09:13:17;;;;;;;9.65;8.75;;;;;;;35.24;65.14;100805.59;5057390;28;68882;-33
2024/03/13 09:15:49;;;;;;;10.27;9.27;;;;;;;35.21;65.30;100808.00;5058676;28;65874;-32
2024/03/13 09:18:22;;;;;;;10.60;9.52;;;;;;;35.17;64.84;100804.16;5058510;28;70615;-32
2024/03/13 09:20:53;;;;;;;25.95;10.23;;;;;;;35.05;65.55;100813.25;5048332;28;66406;-32
2024/03/13 09:23:25;;;;;;;16.27;10.25;;;;;;;35.03;66.05;100815.38;5055311;28;70047;-32
2024/03/13 09:25:57;;;;;;;11.57;10.13;;;;;;;35.00;65.90;100815.06;5058831;28;66716;-33
2024/03/13 09:28:32;;;;;;;12.15;9.60;;;;;;;34.98;66.46;100807.13;5052389;28;70002;-35
2024/03/13 09:31:07;;;;;;;17.42;10.20;;;;;;;35.01;66.26;100811.25;5057641;28;66284;-34
2024/03/13 09:33:38;;;;;;;16.38;10.27;;;;;;;34.98;66.53;100818.03;5053376;28;69415;-32
2024/03/13 09:36:18;;;;;;;12.60;9.95;;;;;;;34.88;66.30;100823.31;5058954;28;66774;-31
2024/03/13 09:38:50;;;;;;;12.85;9.07;;;;;;;34.85;66.64;100819.22;5056859;28;69521;-32
2024/03/13 09:41:23;;;;;;;18.20;10.50;;;;;;;34.89;66.80;100824.97;5054107;28;66229;-33
2024/03/13 09:43:54;;;;;;;13.70;9.98;;;;;;;34.90;66.86;100821.16;5058373;28;69619;-33
2024/03/13 09:46:29;;;;;;;19.10;9.55;;;;;;;34.88;67.14;100823.31;5056206;28;66565;-34
2024/03/13 09:49:02;;;;;;;21.35;9.80;;;;;;;34.87;67.43;100827.94;5057536;28;70408;-34
2024/03/13 09:51:36;;;;;;;13.32;9.35;;;;;;;34.84;67.43;100827.63;5056854;28;65511;-32
2024/03/13 09:54:21;;;;;;;16.92;10.10;;;;;;;34.87;67.33;100829.84;5052219;28;70250;-35
2024/03/13 09:57:05;;;;;;;11.52;9.43;;;;;;;34.84;67.30;100824.91;5050110;28;65630;-33
2024/03/13 09:59:37;;;;;;;17.75;10.02;;;;;;;34.86;67.39;100836.38;5058378;28;70126;-36
2024/03/13 10:02:21;;;;;;;12.48;9.32;;;;;;;34.64;67.67;100811.78;5058064;28;66314;-32
2024/03/13 10:04:53;;;;;;;10.43;9.50;;;;;;;34.80;67.51;100848.25;5049792;28;70357;-32
2024/03/13 10:07:27;;;;;;;12.57;9.75;;;;;;;34.42;68.01;100787.16;5057469;28;66068;-38
2024/03/13 10:10:00;;;;;;;16.05;9.57;;;;;;;34.78;68.20;100855.88;5056146;28;70511;-33
2024/03/13 10:12:31;;;;;;;14.60;9.65;;;;;;;34.76;67.84;100847.13;5057453;28;67109;-31
2024/03/13 10:15:09;;;;;;;13.43;9.07;;;;;;;34.59;68.55;100831.59;5058122;28;70305;-32
2024/03/13 10:17:56;;;;;;;11.23;8.35;;;;;;;34.66;68.96;100848.59;5052812;28;66728;-32
2024/03/13 10:20:35;;;;;;;15.23;8.38;;;;;;;34.40;68.05;100800.19;5054283;28;70781;-33
2024/03/13 10:23:11;;;;;;;17.10;9.38;;;;;;;34.52;69.09;100825.47;5055886;28;65790;-33
2024/03/13 10:25:44;;;;;;;18.70;9.80;;;;;;;34.65;69.05;100857.84;5052766;28;70013;-33
2024/03/13 10:28:23;;;;;;;16.48;10.02;;;;;;;34.70;68.88;100866.09;5051515;28;65722;-33
2024/03/13 10:30:58;;;;;;;19.05;9.93;;;;;;;34.66;68.93;100864.94;5054554;28;70572;-32
2024/03/13 10:33:31;;;;;;;19.40;9.05;;;;;;;34.68;68.58;100861.97;5056647;28;66661;-33
2024/03/13 10:36:04;;;;;;;15.95;10.20;;;;;;;34.70;68.92;100866.09;5049482;28;69700;-32
2024/03/13 10:38:36;;;;;;;12.55;9.50;;;;;;;34.67;68.50;100866.59;5053634;28;65815;-34
2024/03/13 10:41:08;;;;;;;;;;;;;;;34.58;69.45;100868.09;5056768;28;70051;-31
2024/03/13 10:43:46;;;;;;;11.13;8.70;;;;;;;34.63;69.22;100870.03;5058159;28;66303;-33
2024/03/13 10:46:17;;;;;;;14.77;9.10;;;;;;;34.59;68.96;100869.72;5060326;28;70406;-32
2024/03/13 10:48:52;;;;;;;14.68;8.65;;;;;;;34.63;69.23;100873.63;5060341;28;66931;-32
2024/03/13 10:51:23;;;;;;;16.92;9.20;;;;;;;34.63;69.21;100872.78;5060335;28;70370;-33
2024/03/13 10:53:55;;;;;;;12.15;9.40;;;;;;;34.57;69.62;100880.03;5056093;28;66626;-35
2024/03/13 10:56:39;;;;;;;14.52;9.80;;;;;;;34.50;70.38;100882.06;5060217;28;70434;-33
2024/03/13 10:59:11;;;;;;;14.50;9.13;;;;;;;34.54;69.65;100888.66;5056960;28;66104;-33
2024/03/13 11:01:52;;;;;;;12.60;9.57;;;;;;;34.35;69.52;100851.81;5058770;28;70227;-36
2024/03/13 11:04:26;;;;;;;15.82;9.38;;;;;;;34.49;69.87;100885.84;5057762;28;66426;-33
2024/03/13 11:06:58;;;;;;;12.73;9.13;;;;;;;34.52;69.57;100889.97;5059249;28;70427;-32
2024/03/13 11:09:32;;;;;;;18.45;9.23;;;;;;;34.52;69.92;100890.81;5058878;28;66474;-32
2024/03/13 11:12:18;;;;;;;15.88;9.55;;;;;;;34.49;70.22;100896.75;5060236;28;70376;-33
2024/03/13 11:14:56;;;;;;;14.98;9.82;;;;;;;34.18;70.79;100852.59;5058420;28;66073;-32
2024/03/13 11:17:31;;;;;;;15.98;8.93;;;;;;;34.39;70.64;100891.13;5055903;28;70637;-32
2024/03/13 11:20:08;;;;;;;16.17;8.73;;;;;;;34.36;71.25;100902.50;5059905;28;65948;-32
2024/03/13 11:23:27;;;;;;;17.52;9.57;;;;;;;34.17;70.76;100867.31;5057617;28;70227;-32
2024/03/13 11:26:06;;;;;;;11.45;9.35;;;;;;;34.37;70.46;100902.25;5055535;28;64284;-33
2024/03/13 11:28:38;;;;;;;17.15;9.38;;;;;;;34.34;70.59;100907.38;5048567;28;70834;-35
2024/03/13 11:31:09;;;;;;;;;;;;;;;34.20;72.92;100910.38;5061186;28;66634;-34
2024/03/13 11:33:42;;;;;;;15.73;9.25;;;;;;;34.29;71.67;100918.16;5058552;28;69834;-32
2024/03/13 11:36:14;;;;;;;15.85;9.75;;;;;;;34.31;71.69;100918.75;5059905;28;66629;-33
2024/03/13 11:38:45;;;;;;;;;;;;;;;34.11;74.33;100911.84;5060549;28;70612;-33
2024/03/13 11:41:17;;;;;;;15.13;9.80;;;;;;;34.21;72.77;100909.31;5059470;28;66391;-32
2024/03/13 11:43:49;;;;;;;17.55;10.23;;;;;;;34.23;72.99;100918.06;5059751;28;70102;-32
2024/03/13 11:46:23;;;;;;;18.77;9.48;;;;;;;34.22;72.89;100924.56;5057955;28;65952;-35
2024/03/13 11:48:56;;;;;;;14.80;9.48;;;;;;;34.14;73.73;100908.63;5059101;28;69353;-34
2024/03/13 11:51:35;;;;;;;13.18;10.10;;;;;;;34.09;74.49;100919.41;5054062;28;65586;-33
2024/03/13 11:54:35;;;;;;;18.35;10.05;;;;;;;33.93;75.05;100891.00;5054229;28;70101;-33
2024/03/13 11:57:14;;;;;;;11.15;9.68;;;;;;;34.01;74.34;100901.53;5052200;28;66498;-34
2024/03/13 11:59:53;;;;;;;21.05;10.10;;;;;;;34.13;74.82;100933.34;5060485;28;69507;-31
2024/03/13 12:02:27;;;;;;;17.45;9.20;;;;;;;34.11;74.72;100941.78;5058141;28;66767;-33
2024/03/13 12:05:10;;;;;;;19.27;10.07;;;;;;;34.12;74.82;100943.41;5060427;28;69546;-33